Time;durP1;ratioP1;P1;durP2;ratioP2;P2;SDS_P1;SDS_P2;PMS_P1;PMS_P2;Temp;Humidity;BMP_temperature;BMP_pressure;BME280_temperature;BME280_humidity;BME280_pressure;Samples;Min_cycle;Max_cycle;Signal;HPM_P1;HPM_P2
2021/01/31 00:00:50;;;;;;;16.58;6.70;;;;;;;-4.68;78.68;98988.13;5025762;28;20033;-78
2021/01/31 00:03:20;;;;;;;12.65;6.38;;;;;;;-4.60;78.73;98990.06;5023866;28;20034;-78
2021/01/31 00:05:46;;;;;;;10.60;6.38;;;;;;;-4.50;78.94;98990.34;5026169;28;20085;-78
2021/01/31 00:08:14;;;;;;;9.52;5.68;;;;;;;-4.45;78.99;98991.34;5025971;28;20026;-78
2021/01/31 00:10:42;;;;;;;9.90;5.75;;;;;;;-4.32;79.32;98996.75;5026035;28;20041;-78
2021/01/31 00:13:08;;;;;;;16.67;6.68;;;;;;;-4.26;79.06;98992.72;5024818;28;20074;-78
2021/01/31 00:15:40;;;;;;;10.63;5.00;;;;;;;-4.23;78.71;98997.88;5024489;28;20026;-78
2021/01/31 00:18:07;;;;;;;11.25;5.65;;;;;;;-4.28;78.56;98986.75;5026018;28;20018;-79
2021/01/31 00:20:35;;;;;;;12.95;6.07;;;;;;;-4.18;78.58;99007.28;5025704;28;20045;-76
2021/01/31 00:23:02;;;;;;;13.90;6.65;;;;;;;-4.19;78.18;99001.38;5025708;28;20113;-78
2021/01/31 00:25:27;;;;;;;9.70;6.15;;;;;;;-4.21;78.04;98987.78;5025762;28;20026;-78
2021/01/31 00:27:53;;;;;;;8.65;5.70;;;;;;;-4.27;77.77;98985.09;5026013;28;20089;-79
2021/01/31 00:30:22;;;;;;;9.23;6.10;;;;;;;-4.25;77.78;98994.44;5025663;28;20105;-79
2021/01/31 00:32:48;;;;;;;9.90;5.38;;;;;;;-4.29;77.51;98986.72;5025605;28;20026;-79
2021/01/31 00:35:17;;;;;;;10.68;5.28;;;;;;;-4.33;77.22;98982.38;5026176;28;20026;-80
2021/01/31 00:37:43;;;;;;;12.27;5.22;;;;;;;-4.37;77.43;98976.34;5025704;28;20106;-79
2021/01/31 00:40:09;;;;;;;11.90;5.20;;;;;;;-4.37;77.42;98979.75;5025488;28;20045;-79
2021/01/31 00:42:35;;;;;;;10.13;6.05;;;;;;;-4.30;77.51;98990.06;5025634;28;20049;-79
2021/01/31 00:45:01;;;;;;;9.55;6.10;;;;;;;-4.31;77.32;98989.19;5025326;28;20049;-78
2021/01/31 00:47:26;;;;;;;13.75;6.25;;;;;;;-4.33;77.31;98985.78;5025442;28;20036;-78
2021/01/31 00:49:51;;;;;;;9.18;5.35;;;;;;;-4.41;77.10;98983.00;5024030;28;20018;-78
2021/01/31 00:52:21;;;;;;;9.48;5.53;;;;;;;-4.43;77.16;98978.72;5025088;28;20061;-78
2021/01/31 00:54:46;;;;;;;10.35;5.60;;;;;;;-4.46;77.18;98988.75;5025165;28;20060;-78
2021/01/31 00:57:12;;;;;;;9.52;5.53;;;;;;;-4.53;77.06;98983.50;5023686;28;20026;-78
2021/01/31 00:59:37;;;;;;;13.35;5.78;;;;;;;-4.65;77.03;98962.91;5024090;28;20030;-77
2021/01/31 01:02:07;;;;;;;7.35;4.63;;;;;;;-4.65;77.10;98973.88;5024795;28;20786;-78
2021/01/31 01:04:32;;;;;;;11.05;6.05;;;;;;;-4.75;77.16;98974.41;5025157;28;20482;-79
2021/01/31 01:06:58;;;;;;;11.90;5.85;;;;;;;-4.80;76.93;98969.22;5024893;28;20018;-78
2021/01/31 01:09:23;;;;;;;9.80;5.57;;;;;;;-4.83;76.97;98976.72;5024928;28;20077;-78
2021/01/31 01:11:49;;;;;;;9.70;5.25;;;;;;;-4.88;76.88;98968.13;5024697;28;20022;-78
2021/01/31 01:14:19;;;;;;;16.02;6.32;;;;;;;-4.91;76.86;98968.03;5025599;28;20045;-79
2021/01/31 01:16:45;;;;;;;14.85;7.35;;;;;;;-4.97;76.92;98964.47;5041571;28;20026;-79
2021/01/31 01:19:10;;;;;;;14.10;7.32;;;;;;;-5.03;77.17;98954.16;5024945;28;20069;-79
2021/01/31 01:21:36;;;;;;;13.02;7.40;;;;;;;-5.08;77.27;98949.78;5024681;28;20037;-79
2021/01/31 01:24:02;;;;;;;14.10;7.50;;;;;;;-5.16;77.10;98950.38;5023577;28;20149;-78
2021/01/31 01:26:31;;;;;;;12.65;8.38;;;;;;;-5.14;77.38;98950.44;5024724;28;20017;-78
2021/01/31 01:28:56;;;;;;;11.32;7.32;;;;;;;-5.24;77.54;98949.31;5024677;28;20097;-78
2021/01/31 01:31:23;;;;;;;13.52;8.07;;;;;;;-5.22;77.45;98958.66;5022694;28;20028;-78
2021/01/31 01:33:48;;;;;;;12.90;7.40;;;;;;;-5.29;77.57;98945.75;5024569;28;20022;-78
2021/01/31 01:36:14;;;;;;;12.82;7.80;;;;;;;-5.31;77.54;98943.19;5024266;28;20048;-78
2021/01/31 01:38:40;;;;;;;15.63;7.25;;;;;;;-5.25;77.46;98952.63;5024442;28;20109;-78
2021/01/31 01:41:05;;;;;;;13.50;7.10;;;;;;;-5.27;77.48;98952.59;5022944;28;20041;-77
2021/01/31 01:43:31;;;;;;;16.23;8.00;;;;;;;-5.32;77.76;98941.47;5024097;28;20022;-78
2021/01/31 01:46:19;;;;;;;15.45;6.88;;;;;;;-5.36;77.72;98944.69;5022461;28;20026;-78
2021/01/31 01:48:49;;;;;;;15.10;7.82;;;;;;;-5.40;77.93;98941.19;5023892;28;20026;-78
2021/01/31 01:51:16;;;;;;;12.50;7.03;;;;;;;-5.41;78.05;98941.16;5023184;28;20025;-78
2021/01/31 01:53:43;;;;;;;13.75;7.80;;;;;;;-5.42;77.91;98929.31;5023325;28;20053;-78
2021/01/31 01:56:17;;;;;;;15.95;8.10;;;;;;;-5.51;77.88;98917.25;5024141;28;20029;-78
2021/01/31 01:58:43;;;;;;;12.60;6.75;;;;;;;-5.42;77.96;98931.84;5024314;28;20033;-78
2021/01/31 02:01:10;;;;;;;13.63;7.18;;;;;;;-5.40;78.01;98941.19;5023625;28;20030;-77
2021/01/31 02:03:40;;;;;;;13.88;6.30;;;;;;;-5.42;78.06;98942.84;5023963;28;20025;-79
2021/01/31 02:06:13;;;;;;;12.20;7.30;;;;;;;-5.40;78.05;98945.44;5023855;28;20064;-78
2021/01/31 02:08:40;;;;;;;12.60;7.13;;;;;;;-5.43;77.82;98941.09;5022592;28;20026;-79
2021/01/31 02:11:07;;;;;;;13.30;6.93;;;;;;;-5.45;78.02;98935.16;5022804;28;20026;-79
2021/01/31 02:13:35;;;;;;;16.42;7.63;;;;;;;-5.52;77.94;98923.97;5023471;28;20077;-79
2021/01/31 02:16:07;;;;;;;13.88;6.63;;;;;;;-5.48;78.14;98919.88;5023653;28;20131;-78
2021/01/31 02:18:54;;;;;;;14.25;6.28;;;;;;;-5.44;78.41;98924.22;5023750;28;20053;-75
2021/01/31 02:21:38;;;;;;;13.80;7.00;;;;;;;-5.38;78.27;98923.53;5023434;28;20033;-75
2021/01/31 02:24:22;;;;;;;15.30;9.15;;;;;;;-5.35;78.18;98918.59;5022375;28;20032;-75
2021/01/31 02:27:13;;;;;;;12.50;6.85;;;;;;;-5.36;78.17;98919.41;5022618;28;20061;-76
2021/01/31 02:30:00;;;;;;;12.10;6.85;;;;;;;-5.39;78.10;98919.31;5023485;28;20076;-75
2021/01/31 02:33:10;;;;;;;12.55;6.18;;;;;;;-5.45;78.37;98911.53;5023284;28;20029;-76
2021/01/31 02:35:38;;;;;;;15.20;6.18;;;;;;;-5.43;78.09;98910.75;5022242;28;20488;-76
2021/01/31 02:38:10;;;;;;;15.30;7.70;;;;;;;-5.30;78.12;98919.59;5023486;28;20030;-76
2021/01/31 02:40:41;;;;;;;13.68;7.57;;;;;;;-5.32;78.07;98913.66;5022261;28;20590;-76
2021/01/31 02:43:12;;;;;;;11.68;6.63;;;;;;;-5.34;78.02;98917.78;5023612;28;20033;-75
2021/01/31 02:45:40;;;;;;;16.37;6.87;;;;;;;-5.42;77.74;98912.50;5023251;28;20046;-75
2021/01/31 02:48:09;;;;;;;17.35;6.55;;;;;;;-5.49;77.93;98910.56;5021927;28;20018;-77
2021/01/31 02:50:41;;;;;;;19.00;7.55;;;;;;;-5.54;78.27;98915.47;5023394;28;20072;-77
2021/01/31 02:53:13;;;;;;;14.75;7.72;;;;;;;-5.57;78.32;98907.78;5022037;28;20095;-77
2021/01/31 02:55:51;;;;;;;12.07;6.60;;;;;;;-5.63;78.19;98902.53;5023647;28;20094;-76
2021/01/31 02:58:22;;;;;;;16.42;7.43;;;;;;;-5.66;78.45;98903.31;5023454;28;20022;-74
2021/01/31 03:01:09;;;;;;;9.18;5.38;;;;;;;-5.61;78.52;98908.50;5023036;28;20056;-77
2021/01/31 03:03:42;;;;;;;10.95;5.85;;;;;;;-5.68;78.74;98888.88;5023369;28;20032;-75
2021/01/31 03:06:13;;;;;;;13.93;5.95;;;;;;;-5.50;79.17;98903.78;5021877;28;20026;-75
2021/01/31 03:08:56;;;;;;;10.23;5.20;;;;;;;-5.36;78.82;98907.63;5021957;28;20022;-76
2021/01/31 03:11:31;;;;;;;14.27;6.20;;;;;;;-5.25;78.95;98907.97;5023312;28;20084;-75
2021/01/31 03:14:09;;;;;;;14.45;7.10;;;;;;;-5.22;78.75;98900.47;5023039;28;20121;-75
2021/01/31 03:16:57;;;;;;;12.38;7.70;;;;;;;-5.27;78.62;98894.38;5022959;28;20026;-74
2021/01/31 03:19:32;;;;;;;11.15;7.05;;;;;;;-5.26;78.22;98912.97;5023235;28;20037;-75
2021/01/31 03:22:04;;;;;;;13.82;8.07;;;;;;;-5.35;78.35;98899.22;5024517;28;20560;-77
2021/01/31 03:24:35;;;;;;;15.68;8.85;;;;;;;-5.43;78.36;98897.28;5026847;28;20022;-76
2021/01/31 03:27:15;;;;;;;13.15;6.40;;;;;;;-5.47;78.54;98899.69;5025518;28;20033;-74
2021/01/31 03:29:41;;;;;;;12.35;6.05;;;;;;;-5.51;78.85;98895.34;5026632;28;20085;-75
2021/01/31 03:32:15;;;;;;;13.55;7.03;;;;;;;-5.52;79.24;98896.16;5026386;28;20061;-75
2021/01/31 03:34:49;;;;;;;13.82;6.97;;;;;;;-5.57;79.65;98891.78;5026428;28;20065;-76
2021/01/31 03:37:15;;;;;;;12.35;6.50;;;;;;;-5.53;78.98;98894.44;5025074;28;20021;-76
2021/01/31 03:39:44;;;;;;;13.32;7.25;;;;;;;-5.57;79.28;98890.09;5026193;28;20307;-75
2021/01/31 03:42:09;;;;;;;10.40;6.00;;;;;;;-5.52;79.08;98888.56;5024946;28;20026;-75
2021/01/31 03:44:42;;;;;;;12.00;6.65;;;;;;;-5.47;79.45;98893.78;5026277;28;20041;-76
2021/01/31 03:47:15;;;;;;;15.05;6.78;;;;;;;-5.45;79.48;98891.28;5025984;28;20029;-75
2021/01/31 03:49:53;;;;;;;13.13;6.82;;;;;;;-5.42;79.69;98883.78;5026439;28;20083;-75
2021/01/31 03:52:19;;;;;;;12.52;7.07;;;;;;;-5.31;79.50;98890.06;5025921;28;20021;-75
2021/01/31 03:54:44;;;;;;;16.65;8.40;;;;;;;-5.25;79.36;98885.19;5026071;28;20056;-75
2021/01/31 03:57:42;;;;;;;17.90;7.45;;;;;;;-5.23;79.17;98887.75;5024637;28;20136;-75
2021/01/31 04:00:22;;;;;;;13.88;6.75;;;;;;;-5.28;79.09;98880.03;5024625;28;20060;-75
2021/01/31 04:02:55;;;;;;;13.20;6.55;;;;;;;-5.36;78.88;98873.88;5025898;28;20394;-76
2021/01/31 04:05:23;;;;;;;12.32;6.22;;;;;;;-5.37;79.26;98872.16;5025984;28;20030;-76
2021/01/31 04:07:52;;;;;;;6.63;3.90;;;;;;;-5.31;79.53;98879.06;5025804;28;20022;-74
2021/01/31 04:10:17;;;;;;;5.93;3.13;;;;;;;-5.28;80.17;98869.03;5025810;28;20063;-75
2021/01/31 04:12:52;;;;;;;7.85;3.63;;;;;;;-5.22;80.73;98866.69;5025706;28;20030;-75
2021/01/31 04:15:39;;;;;;;8.02;3.13;;;;;;;-5.08;81.68;98863.75;5025572;28;20125;-75
2021/01/31 04:18:04;;;;;;;5.15;2.88;;;;;;;-4.90;81.87;98868.47;5025622;28;20049;-75
2021/01/31 04:20:31;;;;;;;5.47;2.47;;;;;;;-4.85;82.05;98859.34;5025361;28;20490;-75
2021/01/31 04:22:56;;;;;;;7.53;3.25;;;;;;;-4.71;82.20;98859.72;5025468;28;20028;-74
2021/01/31 04:25:21;;;;;;;4.93;2.83;;;;;;;-4.61;82.06;98853.25;5024130;28;20089;-74
2021/01/31 04:27:47;;;;;;;4.85;2.60;;;;;;;-4.58;82.25;98850.78;5024038;28;20025;-74
2021/01/31 04:30:13;;;;;;;4.32;2.70;;;;;;;-4.42;82.31;98861.34;5025195;28;20022;-75
2021/01/31 04:32:38;;;;;;;4.70;2.80;;;;;;;-4.36;82.23;98859.00;5024602;28;20022;-74
2021/01/31 04:35:07;;;;;;;5.75;2.30;;;;;;;-4.27;81.98;98856.72;5024841;28;20056;-75
2021/01/31 04:37:34;;;;;;;3.80;2.50;;;;;;;-4.23;81.99;98858.50;5025128;28;20026;-74
2021/01/31 04:39:59;;;;;;;5.05;2.60;;;;;;;-4.21;81.86;98857.66;5025136;28;20056;-74
2021/01/31 04:42:25;;;;;;;4.93;2.55;;;;;;;-4.28;81.67;98839.78;5025254;28;20026;-74
2021/01/31 04:44:51;;;;;;;5.50;2.00;;;;;;;-4.23;81.80;98835.69;5025144;28;20026;-73
2021/01/31 04:47:30;;;;;;;5.03;2.38;;;;;;;-4.09;81.89;98857.16;5025084;28;20022;-73
2021/01/31 04:49:58;;;;;;;5.85;2.40;;;;;;;-4.06;81.88;98862.28;5025145;28;20018;-74
2021/01/31 04:52:46;;;;;;;3.17;2.30;;;;;;;-4.02;81.80;98854.81;5024941;28;20030;-74
2021/01/31 04:55:51;;;;;;;7.65;4.50;;;;;;;-3.98;81.35;98853.22;5025035;28;20042;-73
2021/01/31 04:58:26;;;;;;;9.23;4.70;;;;;;;-4.17;80.52;98851.88;5025067;28;20037;-74
2021/01/31 05:00:56;;;;;;;7.13;3.90;;;;;;;-4.39;79.93;98853.81;5024479;28;20029;-73
2021/01/31 05:03:23;;;;;;;7.97;4.22;;;;;;;-4.60;79.74;98853.28;5023450;28;20027;-74
2021/01/31 05:05:55;;;;;;;10.32;4.40;;;;;;;-4.75;79.55;98863.00;5024866;28;20332;-74
2021/01/31 05:08:27;;;;;;;6.82;3.97;;;;;;;-4.87;79.91;98871.94;5024736;28;20041;-74
2021/01/31 05:10:55;;;;;;;;;;;;;;;-4.94;79.92;98862.47;5024923;28;20022;-73
2021/01/31 05:13:45;;;;;;;15.38;3.97;;;;;;;-5.08;79.83;98863.75;5024480;28;19917;-74
2021/01/31 05:16:14;;;;;;;8.70;4.85;;;;;;;-5.28;79.32;98849.66;5022989;28;20025;-74
2021/01/31 05:19:03;;;;;;;9.65;4.63;;;;;;;-5.38;79.33;98852.72;5024444;28;20014;-75
2021/01/31 05:21:32;;;;;;;7.22;4.32;;;;;;;-5.52;79.48;98848.09;5024363;28;20068;-74
2021/01/31 05:24:05;;;;;;;7.10;3.90;;;;;;;-5.52;79.63;98855.69;5024493;28;20037;-75
2021/01/31 05:26:39;;;;;;;6.30;3.95;;;;;;;-5.54;80.11;98864.88;5024581;28;20580;-75
2021/01/31 05:29:12;;;;;;;5.68;3.85;;;;;;;-5.48;79.93;98861.72;5024297;28;20056;-76
2021/01/31 05:31:39;;;;;;;6.57;3.55;;;;;;;-5.48;80.24;98867.59;5022562;28;20018;-76
2021/01/31 05:34:05;;;;;;;7.80;3.95;;;;;;;-5.57;80.58;98846.25;5024198;28;20028;-76
2021/01/31 05:36:33;;;;;;;8.63;3.47;;;;;;;-5.50;80.54;98866.72;5024148;28;20390;-76
2021/01/31 05:38:59;;;;;;;7.53;3.60;;;;;;;-5.50;80.81;98864.19;5022669;28;20022;-75
2021/01/31 05:41:48;;;;;;;7.63;4.18;;;;;;;-5.48;81.01;98862.56;5024130;28;20022;-75
2021/01/31 05:44:14;;;;;;;12.27;4.97;;;;;;;-5.42;81.49;98861.03;5023983;28;20018;-75
2021/01/31 05:46:47;;;;;;;10.13;4.57;;;;;;;-5.39;81.47;98858.59;5023701;28;20029;-76
2021/01/31 05:49:39;;;;;;;16.33;5.10;;;;;;;-5.34;81.86;98844.44;5024109;28;20021;-76
2021/01/31 05:52:11;;;;;;;25.88;4.50;;;;;;;-5.08;82.46;98856.13;5023899;28;20026;-77
2021/01/31 05:54:38;;;;;;;27.27;6.63;;;;;;;-4.88;82.83;98851.66;5023900;28;20036;-75
2021/01/31 05:57:24;;;;;;;27.45;4.70;;;;;;;-4.65;82.88;98854.00;5023891;28;20033;-75
2021/01/31 05:59:50;;;;;;;28.40;6.28;;;;;;;-4.50;83.18;98849.34;5023852;28;20026;-74
2021/01/31 06:02:32;;;;;;;22.15;5.38;;;;;;;-4.39;82.97;98843.69;5023352;28;20490;-74
2021/01/31 06:05:12;;;;;;;29.52;7.30;;;;;;;-4.33;82.81;98848.94;5023868;28;20022;-75
2021/01/31 06:07:40;;;;;;;48.35;8.80;;;;;;;-4.43;82.37;98845.31;5023496;28;20084;-76
2021/01/31 06:10:23;;;;;;;51.58;8.27;;;;;;;-4.42;82.71;98857.16;5023573;28;20443;-75
2021/01/31 06:12:50;;;;;;;27.58;6.65;;;;;;;-4.37;82.69;98848.00;5023195;28;20053;-74
2021/01/31 06:15:21;;;;;;;20.38;6.60;;;;;;;-4.24;83.31;98849.19;5023356;28;20584;-74
2021/01/31 06:18:03;;;;;;;16.15;5.80;;;;;;;-4.07;83.67;98846.22;5023553;28;20029;-74
2021/01/31 06:20:35;;;;;;;16.60;5.50;;;;;;;-3.94;83.97;98859.19;5038646;28;20026;-75
2021/01/31 06:23:03;;;;;;;23.38;7.55;;;;;;;-3.79;83.76;98861.28;5023446;28;20282;-74
2021/01/31 06:25:28;;;;;;;22.60;8.02;;;;;;;-3.70;83.90;98858.09;5022497;28;20050;-75
2021/01/31 06:28:11;;;;;;;26.40;7.75;;;;;;;-3.66;83.54;98857.34;5022191;28;20104;-74
2021/01/31 06:31:15;;;;;;;32.28;7.78;;;;;;;-3.67;83.48;98856.50;5023283;28;20274;-74
2021/01/31 06:33:42;;;;;;;33.67;8.77;;;;;;;-3.72;83.30;98847.06;5022411;28;20048;-76
2021/01/31 06:36:47;;;;;;;78.80;11.02;;;;;;;-3.77;83.51;98855.41;5023584;28;20053;-78
2021/01/31 06:39:31;;;;;;;57.33;8.73;;;;;;;-3.84;83.38;98851.00;5000756;28;20042;-78
2021/01/31 06:42:12;;;;;;;69.55;11.20;;;;;;;-3.85;83.43;98854.38;5000826;28;20097;-78
2021/01/31 06:44:40;;;;;;;31.55;8.25;;;;;;;-3.88;83.13;98855.13;5001013;28;20037;-78
2021/01/31 06:47:20;;;;;;;28.08;7.95;;;;;;;-3.99;83.01;98852.34;5000851;28;20403;-79
2021/01/31 06:50:02;;;;;;;21.40;6.80;;;;;;;-4.19;82.61;98846.78;5001080;28;20030;-79
2021/01/31 06:52:36;;;;;;;19.60;7.95;;;;;;;-4.35;82.06;98850.56;5001195;28;20023;-81
2021/01/31 06:55:10;;;;;;;23.50;7.50;;;;;;;-4.49;82.09;98857.81;5001043;28;20042;-79
2021/01/31 06:57:45;;;;;;;11.15;5.72;;;;;;;-4.58;82.21;98853.34;5003876;28;20030;-78
2021/01/31 07:00:10;;;;;;;15.63;6.47;;;;;;;-4.58;82.17;98853.34;5004632;28;20197;-77
2021/01/31 07:03:02;;;;;;;18.15;6.88;;;;;;;-4.52;82.53;98860.25;5004527;28;20061;-77
2021/01/31 07:05:39;;;;;;;14.35;6.00;;;;;;;-4.37;82.87;98864.88;4989811;28;20038;-78
2021/01/31 07:08:23;;;;;;;12.68;6.32;;;;;;;-4.24;83.11;98858.47;5004682;28;20038;-77
2021/01/31 07:11:11;;;;;;;12.23;6.43;;;;;;;-4.14;83.05;98849.41;5005443;28;20026;-79
2021/01/31 07:13:42;;;;;;;15.98;7.55;;;;;;;-4.07;82.96;98853.81;5005594;28;20050;-77
2021/01/31 07:16:20;;;;;;;15.07;7.57;;;;;;;-4.12;82.36;98855.41;5025411;28;20552;-75
2021/01/31 07:19:07;;;;;;;12.15;6.75;;;;;;;-4.21;82.19;98857.66;5025725;28;20017;-76
2021/01/31 07:21:39;;;;;;;10.50;5.65;;;;;;;-4.26;82.29;98855.88;5026713;28;20045;-77
2021/01/31 07:24:13;;;;;;;9.82;5.60;;;;;;;-4.18;82.63;98847.59;5026886;28;20033;-77
2021/01/31 07:26:57;;;;;;;10.48;4.93;;;;;;;-4.05;83.31;98851.31;5026809;28;20041;-77
2021/01/31 07:29:34;;;;;;;12.85;5.43;;;;;;;-3.95;83.52;98854.94;5026821;28;20029;-79
2021/01/31 07:32:04;;;;;;;11.75;5.95;;;;;;;-3.83;83.20;98860.31;5026395;28;20033;-78
2021/01/31 07:34:42;;;;;;;13.07;6.65;;;;;;;-3.74;83.25;98864.78;5025333;28;20149;-78
2021/01/31 07:37:15;;;;;;;9.18;5.10;;;;;;;-3.67;83.52;98864.09;5026653;28;20350;-77
2021/01/31 07:40:10;;;;;;;16.27;6.28;;;;;;;-3.58;83.39;98860.94;5026494;28;20022;-79
2021/01/31 07:42:39;;;;;;;13.90;5.63;;;;;;;-3.59;82.87;98866.81;5026525;28;20036;-79
2021/01/31 07:45:18;;;;;;;12.63;5.97;;;;;;;-3.70;82.83;98853.00;5026218;28;20053;-77
2021/01/31 07:47:43;;;;;;;14.40;6.55;;;;;;;-3.60;82.94;98867.66;5026326;28;20030;-78
2021/01/31 07:50:12;;;;;;;11.13;6.15;;;;;;;-3.61;83.05;98866.78;5026448;28;20041;-79
2021/01/31 07:52:53;;;;;;;14.50;6.75;;;;;;;-3.66;82.39;98867.50;5026133;28;20037;-79
2021/01/31 07:55:28;;;;;;;23.33;7.82;;;;;;;-3.76;82.09;98867.28;5026136;28;20040;-79
2021/01/31 07:57:59;;;;;;;18.73;7.68;;;;;;;-3.70;82.39;98863.16;5024967;28;20207;-78
2021/01/31 08:00:33;;;;;;;14.32;6.38;;;;;;;-3.47;82.87;98832.41;5024501;28;20029;-78
2021/01/31 08:02:59;;;;;;;15.57;6.00;;;;;;;-2.86;83.35;98854.91;5025846;28;20087;-76
2021/01/31 08:05:47;;;;;;;12.85;6.25;;;;;;;-2.24;83.05;98856.06;5026036;28;20425;-77
2021/01/31 08:08:36;;;;;;;12.55;5.10;;;;;;;-1.70;82.46;98857.00;5025101;28;20235;-74
2021/01/31 08:11:03;;;;;;;13.98;5.78;;;;;;;-1.43;81.87;98837.88;5025944;28;20033;-74
2021/01/31 08:13:42;;;;;;;9.10;5.07;;;;;;;-0.93;81.29;98864.06;5025611;28;20050;-75
2021/01/31 08:16:47;;;;;;;12.68;5.65;;;;;;;-0.69;80.94;98863.53;5025658;28;20026;-75
2021/01/31 08:19:18;;;;;;;10.57;5.85;;;;;;;-0.40;80.55;98852.78;5025873;28;20288;-75
2021/01/31 08:22:02;;;;;;;14.27;7.88;;;;;;;-0.05;79.85;98853.16;5025662;28;20030;-75
2021/01/31 08:24:58;;;;;;;12.48;6.57;;;;;;;0.29;78.91;98852.63;5025897;28;20071;-77
2021/01/31 08:27:40;;;;;;;9.07;4.65;;;;;;;0.44;78.12;98868.06;5024584;28;20089;-77
2021/01/31 08:30:31;;;;;;;12.32;5.35;;;;;;;0.19;77.41;98859.34;5025640;28;20034;-78
2021/01/31 08:33:06;;;;;;;7.57;4.80;;;;;;;-0.11;77.43;98860.75;5025591;28;20052;-78
2021/01/31 08:35:43;;;;;;;11.05;6.25;;;;;;;-0.35;78.10;98859.66;5025389;28;20034;-77
2021/01/31 08:38:24;;;;;;;11.48;5.90;;;;;;;-0.44;78.03;98858.72;5026079;28;20030;-77
2021/01/31 08:40:59;;;;;;;10.70;6.28;;;;;;;-0.43;78.72;98864.69;5025509;28;20032;-76
2021/01/31 08:43:29;;;;;;;10.50;6.38;;;;;;;-0.22;78.54;98865.75;5025453;28;20112;-76
2021/01/31 08:46:08;;;;;;;11.90;5.93;;;;;;;-0.05;77.86;98860.81;5025130;28;20022;-75
2021/01/31 08:48:34;;;;;;;7.55;4.63;;;;;;;-0.08;77.67;98851.41;5025550;28;20104;-76
2021/01/31 08:51:11;;;;;;;10.93;5.30;;;;;;;0.05;78.38;98861.75;5025263;28;20480;-76
2021/01/31 08:53:36;;;;;;;9.45;5.20;;;;;;;0.48;77.97;98844.25;5025439;28;20026;-75
2021/01/31 08:56:22;;;;;;;10.95;6.03;;;;;;;1.28;77.07;98867.69;5025172;28;20085;-78
2021/01/31 08:58:49;;;;;;;8.32;4.70;;;;;;;2.09;76.36;98867.09;5025096;28;20022;-75
2021/01/31 09:01:14;;;;;;;11.38;5.90;;;;;;;2.61;72.40;98867.94;5024327;28;20045;-76
2021/01/31 09:03:42;;;;;;;11.73;5.80;;;;;;;3.01;71.66;98876.44;5023561;28;20485;-80
2021/01/31 09:06:08;;;;;;;15.05;6.82;;;;;;;2.52;70.92;98860.28;5024783;28;20085;-81
2021/01/31 09:08:34;;;;;;;13.40;6.70;;;;;;;1.89;71.08;98874.72;5025073;28;20014;-67
2021/01/31 09:11:05;;;;;;;12.48;6.82;;;;;;;1.15;71.71;98863.38;5039970;28;20025;-77
2021/01/31 09:13:32;;;;;;;11.70;6.17;;;;;;;1.07;73.47;98873.56;5023358;28;20145;-77
2021/01/31 09:16:24;;;;;;;11.05;6.43;;;;;;;1.61;73.62;98880.63;5024602;28;20022;-77
2021/01/31 09:19:18;;;;;;;11.38;6.03;;;;;;;2.53;71.83;98864.53;5024487;28;20109;-76
2021/01/31 09:21:45;;;;;;;9.50;5.43;;;;;;;3.50;70.83;98869.44;5024152;28;20121;-77
2021/01/31 09:24:15;;;;;;;9.77;4.60;;;;;;;4.15;67.63;98863.09;5023444;28;20102;-76
2021/01/31 09:26:48;;;;;;;7.55;4.95;;;;;;;4.74;64.86;98869.47;5023233;28;20021;-77
2021/01/31 09:29:16;;;;;;;8.73;4.95;;;;;;;5.27;63.45;98861.22;5024450;28;20021;-76
2021/01/31 09:31:42;;;;;;;7.43;4.63;;;;;;;5.80;62.96;98863.09;5024049;28;20025;-77
2021/01/31 09:34:07;;;;;;;9.13;5.40;;;;;;;6.20;62.08;98853.97;5024459;28;20040;-78
2021/01/31 09:36:35;;;;;;;9.55;5.22;;;;;;;6.66;62.16;98862.69;5023478;28;20018;-76
2021/01/31 09:39:05;;;;;;;9.60;5.57;;;;;;;7.05;60.64;98853.38;5024387;28;20029;-72
2021/01/31 09:41:32;;;;;;;8.30;4.93;;;;;;;7.53;59.82;98864.50;5024389;28;20084;-71
2021/01/31 09:44:06;;;;;;;6.43;4.35;;;;;;;7.90;58.34;98868.91;5024483;28;20022;-72
2021/01/31 09:46:34;;;;;;;5.22;3.63;;;;;;;8.06;58.28;98869.41;5023980;28;20030;-72
2021/01/31 09:49:06;;;;;;;5.97;3.95;;;;;;;8.06;57.63;98874.56;5024438;28;20022;-75
2021/01/31 09:51:34;;;;;;;7.88;4.78;;;;;;;8.08;57.71;98871.94;5022819;28;20484;-68
2021/01/31 09:54:19;;;;;;;9.52;6.07;;;;;;;8.03;57.90;98882.41;5024546;28;20033;-72
2021/01/31 09:56:48;;;;;;;9.02;5.35;;;;;;;7.96;58.62;98885.13;5024146;28;20022;-75
2021/01/31 09:59:21;;;;;;;12.95;6.05;;;;;;;7.61;58.99;98883.28;5023997;28;20446;-74
2021/01/31 10:01:48;;;;;;;9.57;5.78;;;;;;;7.77;59.85;98893.28;5022103;28;20075;-74
2021/01/31 10:04:25;;;;;;;10.82;5.93;;;;;;;7.69;60.14;98883.97;5023739;28;20027;-76
2021/01/31 10:07:08;;;;;;;9.48;6.22;;;;;;;7.87;60.93;98889.63;5023890;28;20497;-76
2021/01/31 10:09:40;;;;;;;9.27;5.95;;;;;;;8.32;61.54;98885.19;5022675;28;20025;-75
2021/01/31 10:12:21;;;;;;;;;;;;;;;8.34;57.68;98885.97;5024162;28;20055;-75
2021/01/31 10:14:49;;;;;;;11.15;6.50;;;;;;;8.74;57.86;98891.13;5023572;28;19925;-75
2021/01/31 10:17:30;;;;;;;10.70;6.07;;;;;;;9.16;55.14;98885.69;5023588;28;20029;-73
2021/01/31 10:20:35;;;;;;;10.57;6.05;;;;;;;9.65;53.17;98887.78;5022343;28;20045;-74
2021/01/31 10:23:12;;;;;;;10.38;6.43;;;;;;;9.89;52.82;98885.34;5022366;28;20026;-74
2021/01/31 10:25:41;;;;;;;8.65;5.32;;;;;;;10.14;51.50;98882.00;5023929;28;20034;-75
2021/01/31 10:28:11;;;;;;;7.93;5.43;;;;;;;10.28;51.82;98880.72;5022337;28;20076;-75
2021/01/31 10:30:44;;;;;;;8.73;4.65;;;;;;;10.23;51.47;98867.06;5038519;28;20036;-74
2021/01/31 10:33:46;;;;;;;8.85;5.80;;;;;;;10.65;52.62;98892.53;5042509;28;20026;-74
2021/01/31 10:36:31;;;;;;;7.68;5.07;;;;;;;10.46;50.42;98884.53;5027549;28;20479;-75
2021/01/31 10:38:59;;;;;;;8.25;5.13;;;;;;;10.16;49.86;98867.25;5027756;28;20034;-75
2021/01/31 10:41:25;;;;;;;10.80;5.65;;;;;;;9.57;49.75;98878.56;5025920;28;20018;-74
2021/01/31 10:44:11;;;;;;;9.40;5.57;;;;;;;8.72;50.31;98882.53;5026292;28;20037;-74
2021/01/31 10:46:39;;;;;;;8.63;5.50;;;;;;;7.99;52.62;98893.66;5027339;28;20446;-72
2021/01/31 10:49:06;;;;;;;7.88;5.72;;;;;;;7.49;52.88;98883.53;5027439;28;20026;-71
2021/01/31 10:51:33;;;;;;;11.13;6.75;;;;;;;7.21;54.02;98895.25;5027262;28;20029;-73
2021/01/31 10:54:01;;;;;;;9.70;5.55;;;;;;;6.96;54.16;98881.94;5027486;28;20045;-75
2021/01/31 10:56:27;;;;;;;10.15;5.93;;;;;;;6.63;53.76;98880.78;5042356;28;20037;-74
2021/01/31 10:58:53;;;;;;;9.93;6.65;;;;;;;6.27;54.34;98890.81;5025996;28;20033;-74
2021/01/31 11:01:20;;;;;;;8.07;5.65;;;;;;;5.91;54.10;98894.72;5026838;28;20030;-74
2021/01/31 11:03:46;;;;;;;9.48;6.22;;;;;;;5.59;55.02;98875.41;5025839;28;20022;-74
2021/01/31 11:06:11;;;;;;;7.22;5.50;;;;;;;5.46;54.49;98898.72;5026006;28;20026;-74
2021/01/31 11:08:36;;;;;;;9.65;6.07;;;;;;;5.15;53.92;98900.78;5027194;28;20026;-73
2021/01/31 11:11:03;;;;;;;9.50;5.82;;;;;;;4.90;54.43;98898.47;5027318;28;20022;-74
2021/01/31 11:13:29;;;;;;;9.35;6.00;;;;;;;4.98;54.78;98888.97;5026914;28;20049;-74
2021/01/31 11:15:54;;;;;;;11.48;5.95;;;;;;;5.27;52.60;98887.78;5026680;28;20045;-74
2021/01/31 11:18:20;;;;;;;7.13;4.57;;;;;;;5.55;52.07;98884.88;5026962;28;20057;-75
2021/01/31 11:20:47;;;;;;;8.63;6.03;;;;;;;5.93;50.87;98876.66;5025107;28;20030;-74
2021/01/31 11:23:13;;;;;;;8.57;5.95;;;;;;;6.28;50.51;98871.88;5024892;28;20029;-74
2021/01/31 11:25:38;;;;;;;11.13;6.47;;;;;;;6.83;49.14;98884.75;5026435;28;20030;-75
2021/01/31 11:28:04;;;;;;;10.00;5.70;;;;;;;7.31;48.16;98885.59;5026843;28;20025;-75
2021/01/31 11:30:30;;;;;;;8.80;6.32;;;;;;;7.94;47.15;98886.00;5026348;28;20093;-74
2021/01/31 11:32:58;;;;;;;10.55;6.65;;;;;;;8.49;46.26;98883.91;5026716;28;20022;-75
2021/01/31 11:35:24;;;;;;;10.93;6.18;;;;;;;9.01;45.13;98892.13;5026681;28;20053;-74
2021/01/31 11:37:50;;;;;;;10.18;6.75;;;;;;;9.47;44.33;98896.09;5042019;28;20022;-74
2021/01/31 11:40:16;;;;;;;16.23;7.15;;;;;;;9.83;43.17;98890.72;5026520;28;20135;-75
2021/01/31 11:42:42;;;;;;;9.98;6.05;;;;;;;9.81;43.18;98884.72;5026215;28;20032;-75
2021/01/31 11:45:08;;;;;;;10.68;6.35;;;;;;;8.61;43.92;98891.41;5025374;28;20042;-75
2021/01/31 11:47:34;;;;;;;11.50;6.10;;;;;;;7.11;45.70;98898.91;5026054;28;20026;-75
2021/01/31 11:50:00;;;;;;;10.45;6.13;;;;;;;5.67;47.51;98904.47;5026683;28;20018;-75
2021/01/31 11:52:26;;;;;;;11.75;6.57;;;;;;;4.52;49.86;98875.63;5026104;28;20029;-75
2021/01/31 11:54:52;;;;;;;10.27;6.75;;;;;;;3.99;51.72;98906.00;5026182;28;20029;-76
2021/01/31 11:57:17;;;;;;;12.60;7.00;;;;;;;3.38;52.87;98908.81;5026217;28;20079;-76